Time;durP1;ratioP1;P1;durP2;ratioP2;P2;SDS_P1;SDS_P2;PMS_P1;PMS_P2;Temp;Humidity;BMP_temperature;BMP_pressure;BME280_temperature;BME280_humidity;BME280_pressure;Samples;Min_cycle;Max_cycle;Signal;HPM_P1;HPM_P2
2023/08/16 04:02:30;;;;;;;0.60;0.10;;;21.70;1.00;;;;;;5045371;23;20472;-72
2023/08/16 04:05:08;;;;;;;0.80;0.40;;;21.60;1.00;;;;;;4974295;28;20453;-72
2023/08/16 04:07:36;;;;;;;0.60;0.20;;;21.60;1.00;;;;;;4974628;28;20532;-71
2023/08/16 04:10:04;;;;;;;0.70;0.30;;;21.50;1.00;;;;;;4974163;28;20616;-72
2023/08/16 04:12:32;;;;;;;0.60;0.20;;;21.50;1.00;;;;;;4974586;28;20468;-71
2023/08/16 04:15:00;;;;;;;0.60;0.10;;;21.50;1.00;;;;;;4974514;28;20448;-72
2023/08/16 04:17:28;;;;;;;0.60;0.10;;;;;;;;;;4974941;28;20988;-72
2023/08/16 04:19:58;;;;;;;0.60;0.10;;;21.60;1.00;;;;;;4974703;28;20445;-71
2023/08/16 04:22:25;;;;;;;0.60;0.20;;;21.60;1.00;;;;;;4974369;28;20553;-71
2023/08/16 04:24:53;;;;;;;19.47;14.83;;;21.60;1.00;;;;;;4974604;28;20548;-71
2023/08/16 04:27:21;;;;;;;0.67;0.40;;;21.60;1.00;;;;;;4974985;28;20551;-71
2023/08/16 04:29:49;;;;;;;0.60;0.20;;;21.60;1.00;;;;;;4974511;28;20540;-71
2023/08/16 04:32:17;;;;;;;0.70;0.50;;;21.60;1.00;;;;;;4972214;28;20485;-72
2023/08/16 04:34:45;;;;;;;0.60;0.10;;;21.60;1.00;;;;;;4974558;28;20508;-71
2023/08/16 04:37:14;;;;;;;0.60;0.20;;;21.60;1.00;;;;;;4968652;28;20560;-70
2023/08/16 04:39:42;;;;;;;0.90;0.70;;;21.60;1.00;;;;;;4974546;28;20444;-69
2023/08/16 04:42:10;;;;;;;0.60;0.10;;;21.60;1.00;;;;;;4974203;28;20525;-70
2023/08/16 04:44:38;;;;;;;0.60;0.10;;;21.60;1.00;;;;;;4974152;28;21033;-71
2023/08/16 04:47:06;;;;;;;0.70;0.37;;;21.70;1.00;;;;;;4973446;28;20543;-71
2023/08/16 04:49:34;;;;;;;0.60;0.10;;;;;;;;;;4974089;28;20841;-71
2023/08/16 04:52:03;;;;;;;0.60;0.20;;;;;;;;;;4973709;28;20484;-70
2023/08/16 04:54:32;;;;;;;0.60;0.10;;;21.60;1.00;;;;;;4973832;28;20445;-70
2023/08/16 04:57:00;;;;;;;0.60;0.20;;;21.60;1.00;;;;;;4973940;28;20954;-70
2023/08/16 04:59:28;;;;;;;0.60;0.10;;;21.60;1.00;;;;;;4974471;28;20891;-71
2023/08/16 05:01:56;;;;;;;0.60;0.10;;;21.60;1.00;;;;;;4974885;28;20480;-71
2023/08/16 05:04:24;;;;;;;0.60;0.20;;;21.60;1.00;;;;;;4974775;28;20934;-71
2023/08/16 05:06:52;;;;;;;0.60;0.20;;;21.60;1.00;;;;;;4972939;28;20532;-72
2023/08/16 05:09:20;;;;;;;0.60;0.10;;;;;;;;;;4973615;28;20896;-72
2023/08/16 05:11:49;;;;;;;0.60;0.10;;;21.70;1.00;;;;;;4972518;28;20561;-71
2023/08/16 05:14:17;;;;;;;0.60;0.10;;;21.80;1.00;;;;;;4969274;28;20627;-71
2023/08/16 05:16:44;;;;;;;0.60;0.10;;;21.80;1.00;;;;;;4968210;28;20473;-71
2023/08/16 05:19:13;;;;;;;0.60;0.10;;;21.80;1.00;;;;;;4973480;28;20470;-71
2023/08/16 05:21:41;;;;;;;0.60;0.10;;;21.70;1.00;;;;;;4974409;28;20501;-71
2023/08/16 05:24:11;;;;;;;0.60;0.10;;;21.80;1.00;;;;;;4975099;28;20455;-71
2023/08/16 05:26:39;;;;;;;0.60;0.10;;;;;;;;;;4974371;28;20962;-75
2023/08/16 05:29:09;;;;;;;0.60;0.20;;;21.90;1.00;;;;;;4973169;28;20446;-74
2023/08/16 05:31:41;;;;;;;0.60;0.10;;;22.00;1.00;;;;;;4971211;28;20505;-74
2023/08/16 05:34:09;;;;;;;0.60;0.10;;;22.00;1.00;;;;;;4972932;28;20983;-74
2023/08/16 05:36:46;;;;;;;0.60;0.10;;;22.00;1.00;;;;;;4972820;28;20504;-74
2023/08/16 05:39:15;;;;;;;0.60;0.10;;;;;;;;;;4973066;28;20465;-74
2023/08/16 05:41:43;;;;;;;0.60;0.20;;;22.00;1.00;;;;;;4972281;28;20477;-74
2023/08/16 05:44:12;;;;;;;0.60;0.10;;;21.90;1.00;;;;;;4960108;28;20525;-73
2023/08/16 05:46:40;;;;;;;0.60;0.17;;;;;;;;;;4971413;28;20883;-72
2023/08/16 05:49:08;;;;;;;0.60;0.10;;;21.90;1.00;;;;;;4971744;28;20452;-72
2023/08/16 05:51:36;;;;;;;0.60;0.10;;;21.90;1.00;;;;;;4972290;28;20481;-73
2023/08/16 05:54:04;;;;;;;0.60;0.10;;;21.80;1.00;;;;;;4972440;28;20449;-74
2023/08/16 05:56:32;;;;;;;0.60;0.10;;;21.70;1.00;;;;;;4972053;28;20942;-73
2023/08/16 05:59:00;;;;;;;0.60;0.20;;;21.80;1.00;;;;;;4972894;28;20480;-73
2023/08/16 06:01:29;;;;;;;0.60;0.10;;;21.70;1.00;;;;;;4972224;28;20533;-73
2023/08/16 06:03:57;;;;;;;0.60;0.20;;;21.80;1.00;;;;;;4972556;28;20449;-75
2023/08/16 06:06:26;;;;;;;0.60;0.10;;;;;;;;;;4972379;28;20445;-73
2023/08/16 06:08:53;;;;;;;0.60;0.10;;;21.90;1.00;;;;;;4972842;28;20926;-74
2023/08/16 06:11:22;;;;;;;0.60;0.10;;;;;;;;;;4972567;28;20485;-74
2023/08/16 06:13:50;;;;;;;0.60;0.10;;;;;;;;;;4972390;28;20938;-74
2023/08/16 06:16:18;;;;;;;0.60;0.10;;;;;;;;;;4972271;28;20449;-74
2023/08/16 06:18:49;;;;;;;0.60;0.10;;;21.90;1.00;;;;;;4975205;28;20478;-75
2023/08/16 06:21:17;;;;;;;0.60;0.20;;;21.80;1.00;;;;;;4976856;28;20548;-73
2023/08/16 06:23:45;;;;;;;4.73;0.63;;;21.80;1.00;;;;;;4976309;28;20942;-73
2023/08/16 06:26:14;;;;;;;0.60;0.10;;;21.80;1.00;;;;;;4976857;28;20452;-73
2023/08/16 06:28:42;;;;;;;0.60;0.10;;;21.80;1.00;;;;;;4977329;28;20969;-72
2023/08/16 06:31:09;;;;;;;7.03;1.47;;;21.70;1.00;;;;;;4977073;28;21222;-72
2023/08/16 06:33:38;;;;;;;0.60;0.10;;;;;;;;;;4977323;28;20446;-72
2023/08/16 06:36:07;;;;;;;0.80;0.70;;;21.60;1.00;;;;;;4976605;28;20480;-73
2023/08/16 06:38:35;;;;;;;0.67;0.33;;;21.60;1.00;;;;;;4976812;28;20448;-72
2023/08/16 06:41:03;;;;;;;0.60;0.20;;;21.50;1.00;;;;;;4976424;28;20913;-73
2023/08/16 06:43:31;;;;;;;0.60;0.20;;;21.50;1.00;;;;;;4977011;28;20536;-72
2023/08/16 06:45:59;;;;;;;0.60;0.10;;;21.40;1.00;;;;;;4977284;28;20488;-75
2023/08/16 06:48:26;;;;;;;1.80;1.07;;;21.40;1.00;;;;;;4976978;28;20450;-75
2023/08/16 06:50:55;;;;;;;0.80;0.30;;;21.50;1.00;;;;;;4976388;28;20482;-75
2023/08/16 06:53:25;;;;;;;1.37;0.80;;;21.50;1.00;;;;;;4975728;28;20481;-73
2023/08/16 06:55:54;;;;;;;0.60;0.30;;;21.50;1.00;;;;;;4976077;28;20821;-73
2023/08/16 06:58:22;;;;;;;0.60;0.10;;;21.60;1.00;;;;;;4975823;28;20538;-73
2023/08/16 07:00:50;;;;;;;1.10;0.50;;;21.60;1.00;;;;;;4975624;28;20913;-73
2023/08/16 07:03:18;;;;;;;0.60;0.20;;;21.60;1.00;;;;;;4976178;28;20442;-72
2023/08/16 07:05:46;;;;;;;0.87;0.50;;;21.70;1.00;;;;;;4975438;28;20503;-72
2023/08/16 07:08:14;;;;;;;0.60;0.10;;;21.80;1.00;;;;;;4975731;28;20526;-73
2023/08/16 07:10:44;;;;;;;0.60;0.10;;;21.80;1.00;;;;;;4974912;28;21080;-73
2023/08/16 07:13:13;;;;;;;1.00;0.70;;;;;;;;;;4975409;28;20957;-73
2023/08/16 07:15:41;;;;;;;0.60;0.10;;;;;;;;;;4975227;28;20453;-74
2023/08/16 07:18:09;;;;;;;0.60;0.20;;;21.90;1.00;;;;;;4977253;28;20988;-73
2023/08/16 07:20:37;;;;;;;0.90;0.67;;;22.00;1.00;;;;;;4976966;28;20584;-72
2023/08/16 07:23:06;;;;;;;0.60;0.10;;;22.00;1.00;;;;;;4976462;28;20476;-71
2023/08/16 07:25:34;;;;;;;0.60;0.10;;;22.00;1.00;;;;;;4976181;28;20530;-74
2023/08/16 07:28:04;;;;;;;0.60;0.10;;;22.10;1.00;;;;;;4975927;28;21005;-73
2023/08/16 07:30:33;;;;;;;0.60;0.20;;;;;;;;;;4974962;28;20816;-73
2023/08/16 07:33:00;;;;;;;0.60;0.10;;;22.20;1.00;;;;;;4975720;28;20560;-73
2023/08/16 07:35:28;;;;;;;0.60;0.10;;;22.30;1.00;;;;;;4975615;28;20457;-72
2023/08/16 07:37:56;;;;;;;0.60;0.20;;;22.30;1.00;;;;;;4976178;28;20453;-72
2023/08/16 07:40:24;;;;;;;0.80;0.20;;;22.20;1.00;;;;;;4975880;28;20449;-73
2023/08/16 07:42:52;;;;;;;0.60;0.10;;;;;;;;;;4975678;28;20450;-73
2023/08/16 07:45:21;;;;;;;0.60;0.10;;;22.30;1.00;;;;;;4974865;28;20446;-73
2023/08/16 07:47:49;;;;;;;0.60;0.10;;;22.40;1.00;;;;;;4975497;28;20516;-72
2023/08/16 07:50:17;;;;;;;0.70;0.20;;;22.50;1.00;;;;;;4975007;28;20460;-73
2023/08/16 07:52:46;;;;;;;0.60;0.10;;;;;;;;;;4975116;28;20492;-74
2023/08/16 07:55:14;;;;;;;0.60;0.10;;;22.50;1.00;;;;;;4975805;28;21269;-73
2023/08/16 07:57:42;;;;;;;0.60;0.10;;;22.50;1.00;;;;;;4975567;28;20449;-72
2023/08/16 08:00:12;;;;;;;0.60;0.10;;;22.50;1.00;;;;;;4976031;28;20548;-73
2023/08/16 08:02:41;;;;;;;0.60;0.10;;;22.60;1.00;;;;;;4975741;28;20441;-75
2023/08/16 08:05:24;;;;;;;0.60;0.10;;;22.60;1.00;;;;;;4976010;28;20445;-73
2023/08/16 08:07:53;;;;;;;0.60;0.10;;;22.70;1.00;;;;;;4975063;28;20442;-74
2023/08/16 08:10:21;;;;;;;0.90;0.20;;;22.70;1.00;;;;;;4974910;28;20441;-73
2023/08/16 08:12:49;;;;;;;0.60;0.10;;;22.70;1.00;;;;;;4973906;28;20527;-73
2023/08/16 08:15:17;;;;;;;3.60;2.00;;;22.90;1.00;;;;;;4974269;28;20973;-74
2023/08/16 08:17:47;;;;;;;0.80;0.50;;;22.90;1.00;;;;;;4974873;28;20496;-73
2023/08/16 08:20:15;;;;;;;0.63;0.17;;;;;;;;;;4974614;28;20516;-74
2023/08/16 08:22:43;;;;;;;0.60;0.10;;;23.10;1.00;;;;;;4974372;28;20473;-73
2023/08/16 08:25:11;;;;;;;0.60;0.10;;;;;;;;;;4974462;28;20438;-73
2023/08/16 08:27:40;;;;;;;0.60;0.10;;;;;;;;;;4974561;28;20454;-73
2023/08/16 08:30:09;;;;;;;0.60;0.10;;;23.30;1.00;;;;;;4975254;28;20492;-74
2023/08/16 08:32:37;;;;;;;0.60;0.10;;;23.40;1.00;;;;;;4974714;28;20492;-75
2023/08/16 08:35:07;;;;;;;0.60;0.10;;;23.40;1.00;;;;;;4973689;28;20989;-74
2023/08/16 08:37:36;;;;;;;0.60;0.10;;;;;;;;;;4974349;28;20537;-76
2023/08/16 08:40:05;;;;;;;0.60;0.20;;;23.40;1.00;;;;;;4973955;28;20485;-73
2023/08/16 08:42:34;;;;;;;0.60;0.10;;;23.40;1.00;;;;;;4972818;28;21092;-74
2023/08/16 08:45:02;;;;;;;0.60;0.10;;;;;;;;;;4955138;28;20901;-74
2023/08/16 08:47:31;;;;;;;0.60;0.10;;;23.40;1.00;;;;;;4954604;29;20490;-74
2023/08/16 08:50:00;;;;;;;0.60;0.10;;;23.50;1.00;;;;;;4954553;29;20832;-74
2023/08/16 08:52:31;;;;;;;0.87;0.70;;;23.50;1.00;;;;;;4954271;29;20501;-74
2023/08/16 08:54:59;;;;;;;0.60;0.10;;;23.50;1.00;;;;;;4953991;29;20537;-74
2023/08/16 08:57:29;;;;;;;0.60;0.10;;;23.60;1.00;;;;;;4954517;29;20443;-73
2023/08/16 08:59:59;;;;;;;2.73;1.50;;;23.60;1.00;;;;;;4954430;29;20489;-74
2023/08/16 09:02:33;;;;;;;0.60;0.10;;;23.60;1.00;;;;;;4954172;29;20508;-74
2023/08/16 09:05:04;;;;;;;0.60;0.10;;;23.70;1.00;;;;;;4954360;29;20509;-73
2023/08/16 09:07:34;;;;;;;0.60;0.10;;;23.70;99.90;;;;;;4954367;29;20458;-74
2023/08/16 09:10:02;;;;;;;0.60;0.10;;;23.80;99.90;;;;;;4954342;29;20942;-73
2023/08/16 09:12:30;;;;;;;0.60;0.10;;;23.90;99.90;;;;;;4954147;29;20486;-73
2023/08/16 09:14:58;;;;;;;0.60;0.10;;;24.00;99.90;;;;;;4953756;29;20447;-72
2023/08/16 09:17:25;;;;;;;0.60;0.20;;;24.00;99.90;;;;;;4954332;28;20482;-73
2023/08/16 09:19:53;;;;;;;0.60;0.10;;;24.10;99.90;;;;;;4954155;29;20493;-73
2023/08/16 09:22:21;;;;;;;0.60;0.10;;;24.00;99.90;;;;;;4953669;29;21070;-73
2023/08/16 09:24:55;;;;;;;0.60;0.10;;;24.10;99.90;;;;;;4953766;28;20551;-75
2023/08/16 09:27:23;;;;;;;0.60;0.30;;;24.10;99.90;;;;;;4953949;29;20944;-76
2023/08/16 09:29:54;;;;;;;0.60;0.10;;;24.10;99.90;;;;;;4954577;29;20446;-74
2023/08/16 09:32:23;;;;;;;0.60;0.10;;;24.20;99.90;;;;;;4954478;29;20586;-74
2023/08/16 09:34:53;;;;;;;0.60;0.10;;;24.20;99.90;;;;;;4954796;29;20442;-74
2023/08/16 09:37:23;;;;;;;0.60;0.10;;;24.30;99.90;;;;;;4955576;29;20490;-73
2023/08/16 09:39:57;;;;;;;0.60;0.10;;;24.30;99.90;;;;;;4955603;28;20459;-73
2023/08/16 09:42:32;;;;;;;0.60;0.10;;;24.40;99.90;;;;;;4955517;29;20509;-72
2023/08/16 09:45:00;;;;;;;0.70;0.30;;;24.40;99.90;;;;;;4973322;28;20557;-74
2023/08/16 09:47:30;;;;;;;0.60;0.10;;;;;;;;;;4973119;28;20496;-74
2023/08/16 09:50:05;;;;;;;0.60;0.10;;;24.40;99.90;;;;;;4973656;28;20541;-74
2023/08/16 09:52:34;;;;;;;0.60;0.13;;;24.40;99.90;;;;;;4972188;28;20489;-74
2023/08/16 09:55:07;;;;;;;0.60;0.10;;;24.40;99.90;;;;;;4972770;28;20512;-73
2023/08/16 09:57:36;;;;;;;0.60;0.10;;;24.50;99.90;;;;;;4972676;28;20450;-74
2023/08/16 10:00:06;;;;;;;0.60;0.10;;;24.50;99.90;;;;;;4972701;28;20537;-74
2023/08/16 10:02:35;;;;;;;0.60;0.10;;;24.50;99.90;;;;;;4972317;28;20477;-74
2023/08/16 10:05:07;;;;;;;0.60;0.10;;;24.60;99.90;;;;;;4972786;28;20520;-73
2023/08/16 10:07:37;;;;;;;0.60;0.20;;;24.70;99.90;;;;;;4974888;28;20962;-74
2023/08/16 10:10:13;;;;;;;0.60;0.10;;;24.80;99.90;;;;;;4976157;28;20461;-73
2023/08/16 10:12:41;;;;;;;0.60;0.10;;;;;;;;;;4973357;28;20489;-73
2023/08/16 10:15:10;;;;;;;0.60;0.10;;;24.80;99.90;;;;;;4972787;28;20809;-73
2023/08/16 10:17:39;;;;;;;0.60;0.30;;;24.80;99.90;;;;;;4973561;28;20481;-75
2023/08/16 10:20:15;;;;;;;0.60;0.10;;;24.90;99.90;;;;;;4972592;28;20454;-74
2023/08/16 10:22:44;;;;;;;0.63;0.20;;;24.90;99.90;;;;;;4973193;28;20547;-75
2023/08/16 10:25:17;;;;;;;0.70;0.30;;;24.90;99.90;;;;;;4972578;28;20521;-72
2023/08/16 10:27:46;;;;;;;0.60;0.10;;;25.00;99.90;;;;;;4973439;28;20446;-74
2023/08/16 10:30:19;;;;;;;0.60;0.20;;;25.00;99.90;;;;;;4973032;28;20514;-73
2023/08/16 10:32:49;;;;;;;0.60;0.20;;;25.00;99.90;;;;;;4972506;28;20481;-72
2023/08/16 10:35:17;;;;;;;0.60;0.10;;;25.10;99.90;;;;;;4972140;28;20453;-72
2023/08/16 10:37:46;;;;;;;0.60;0.10;;;25.10;99.90;;;;;;4972675;28;20449;-73
2023/08/16 10:40:20;;;;;;;0.60;0.13;;;25.10;99.90;;;;;;4972572;28;20990;-73
2023/08/16 10:42:57;;;;;;;0.60;0.10;;;25.20;99.90;;;;;;4972651;28;20891;-74
2023/08/16 10:45:27;;;;;;;0.60;0.10;;;25.10;99.90;;;;;;4973239;28;20532;-72
2023/08/16 10:48:18;;;;;;;0.60;0.10;;;25.30;99.90;;;;;;4973798;28;20438;-75
2023/08/16 10:50:55;;;;;;;0.60;0.17;;;25.30;99.90;;;;;;4973285;28;20497;-73
2023/08/16 10:53:25;;;;;;;0.60;0.10;;;25.30;99.90;;;;;;4973272;28;20483;-73
2023/08/16 10:55:56;;;;;;;0.60;0.20;;;25.40;99.90;;;;;;4972677;28;20537;-75
2023/08/16 10:58:25;;;;;;;0.60;0.10;;;25.40;99.90;;;;;;4972709;28;20484;-74
2023/08/16 11:00:58;;;;;;;0.60;0.10;;;25.40;99.90;;;;;;4974029;28;20481;-75
2023/08/16 11:03:33;;;;;;;0.60;0.10;;;25.50;99.90;;;;;;4974847;28;20450;-75
2023/08/16 11:06:08;;;;;;;0.60;0.10;;;25.50;99.90;;;;;;4975574;28;20676;-74
2023/08/16 11:08:37;;;;;;;0.60;0.10;;;25.50;99.90;;;;;;4978201;28;20445;-76
2023/08/16 11:11:06;;;;;;;0.63;0.10;;;25.60;99.90;;;;;;4978321;28;20514;-75
2023/08/16 11:13:34;;;;;;;0.60;0.10;;;25.60;99.90;;;;;;4986601;28;20513;-75
2023/08/16 11:16:02;;;;;;;0.70;0.20;;;25.70;99.90;;;;;;4981767;28;20540;-75
2023/08/16 11:18:31;;;;;;;0.60;0.10;;;25.80;99.90;;;;;;4976419;28;20896;-75
2023/08/16 11:21:03;;;;;;;0.63;0.10;;;25.70;99.90;;;;;;4975666;28;20985;-74
2023/08/16 11:23:32;;;;;;;0.70;0.20;;;25.80;99.90;;;;;;4976189;28;20448;-73
2023/08/16 11:26:01;;;;;;;0.70;0.10;;;25.90;99.90;;;;;;4975796;28;20504;-72
2023/08/16 11:28:31;;;;;;;0.60;0.10;;;25.90;99.90;;;;;;4975682;28;20450;-75
2023/08/16 11:31:00;;;;;;;0.60;0.10;;;26.10;99.90;;;;;;4975611;28;21008;-75
2023/08/16 11:33:32;;;;;;;0.70;0.10;;;26.20;99.90;;;;;;4975119;28;21055;-74
2023/08/16 11:36:01;;;;;;;0.60;0.10;;;26.30;99.90;;;;;;4975097;28;20492;-75
2023/08/16 11:38:29;;;;;;;0.60;0.20;;;26.40;99.90;;;;;;4975342;28;20449;-73
2023/08/16 11:40:58;;;;;;;0.70;0.20;;;26.40;99.90;;;;;;4975178;28;20474;-76
2023/08/16 11:43:27;;;;;;;1.17;0.50;;;26.40;99.90;;;;;;4974809;28;20453;-74
2023/08/16 11:45:57;;;;;;;0.70;0.20;;;26.60;99.90;;;;;;4975102;28;20539;-75
2023/08/16 11:48:26;;;;;;;0.70;0.40;;;;;;;;;;4975181;28;20823;-74
2023/08/16 11:50:54;;;;;;;0.70;0.10;;;26.70;99.90;;;;;;4976896;28;20475;-75
2023/08/16 11:53:22;;;;;;;0.70;0.20;;;26.70;99.90;;;;;;4976788;28;20485;-75
2023/08/16 11:56:00;;;;;;;0.60;0.10;;;26.70;99.90;;;;;;4976629;28;20453;-75
2023/08/16 11:58:28;;;;;;;0.70;0.10;;;26.50;99.90;;;;;;4975819;28;20544;-75
2023/08/16 12:01:03;;;;;;;0.70;0.20;;;26.70;99.90;;;;;;4974783;28;20536;-73
2023/08/16 12:03:34;;;;;;;0.70;0.10;;;26.80;99.90;;;;;;4974581;28;20448;-72
2023/08/16 12:06:06;;;;;;;0.70;0.10;;;26.70;99.90;;;;;;4975020;28;20943;-74
2023/08/16 12:08:34;;;;;;;0.67;0.10;;;;;;;;;;4974636;28;20491;-76
2023/08/16 12:11:03;;;;;;;0.70;0.13;;;26.70;99.90;;;;;;4974707;28;20465;-73
2023/08/16 12:13:35;;;;;;;0.63;0.20;;;26.70;99.90;;;;;;4974722;28;20481;-75
2023/08/16 12:16:05;;;;;;;0.70;0.10;;;26.70;99.90;;;;;;4974276;28;21079;-74
2023/08/16 12:18:33;;;;;;;0.70;0.10;;;26.80;99.90;;;;;;4974313;28;20938;-73
2023/08/16 12:21:01;;;;;;;0.67;0.10;;;26.80;99.90;;;;;;4974147;28;20469;-74
2023/08/16 12:23:29;;;;;;;0.70;0.10;;;26.90;99.90;;;;;;4974648;28;20500;-74
2023/08/16 12:25:57;;;;;;;0.70;0.20;;;26.90;99.90;;;;;;4973723;28;20875;-72
2023/08/16 12:28:25;;;;;;;0.70;0.10;;;27.00;99.90;;;;;;4974010;28;20992;-74
2023/08/16 12:30:53;;;;;;;0.90;0.47;;;26.90;99.90;;;;;;4974236;28;20876;-75
2023/08/16 12:33:22;;;;;;;0.70;0.10;;;26.90;99.90;;;;;;4974817;28;20874;-75
2023/08/16 12:35:50;;;;;;;0.70;0.10;;;26.90;99.90;;;;;;4974744;28;20544;-73
2023/08/16 12:38:19;;;;;;;0.70;0.10;;;27.00;99.90;;;;;;4974342;28;20533;-74
2023/08/16 12:40:47;;;;;;;0.70;0.10;;;27.00;99.90;;;;;;4974154;28;20489;-75
2023/08/16 12:43:15;;;;;;;0.70;0.10;;;;;;;;;;4974033;28;20492;-75
2023/08/16 12:45:43;;;;;;;0.70;0.20;;;26.90;99.90;;;;;;4975122;28;20461;-75
2023/08/16 12:48:11;;;;;;;0.70;0.10;;;27.20;99.90;;;;;;4974623;28;20443;-74
2023/08/16 12:50:41;;;;;;;0.70;0.10;;;;;;;;;;4973551;28;20466;-73
2023/08/16 12:53:11;;;;;;;0.80;0.30;;;27.10;99.90;;;;;;4974111;28;20529;-73
2023/08/16 12:55:42;;;;;;;0.70;0.10;;;;;;;;;;4973628;28;20931;-74
2023/08/16 12:58:15;;;;;;;0.70;0.10;;;27.10;99.90;;;;;;4973880;28;20456;-73
2023/08/16 13:00:46;;;;;;;0.70;0.10;;;27.30;99.90;;;;;;4973079;28;20570;-74
2023/08/16 13:03:14;;;;;;;0.70;0.10;;;27.30;99.90;;;;;;4973821;28;20455;-75
2023/08/16 13:05:44;;;;;;;0.70;0.10;;;27.30;99.90;;;;;;4973480;28;20492;-73
2023/08/16 13:08:15;;;;;;;0.70;0.13;;;27.30;99.90;;;;;;4973389;28;20902;-73
2023/08/16 13:10:56;;;;;;;0.70;0.10;;;;;;;;;;4973441;28;20994;-74
2023/08/16 13:13:36;;;;;;;0.70;0.20;;;27.40;99.90;;;;;;4973342;28;20577;-73
2023/08/16 13:16:07;;;;;;;0.70;0.13;;;27.50;99.90;;;;;;4973617;28;20935;-74
2023/08/16 13:18:37;;;;;;;0.70;0.10;;;27.50;99.90;;;;;;4973599;28;20787;-73
2023/08/16 13:21:09;;;;;;;0.70;0.20;;;;;;;;;;4973521;28;20471;-72
2023/08/16 13:23:40;;;;;;;0.70;0.10;;;27.50;99.90;;;;;;4973359;28;20554;-73
2023/08/16 13:26:13;;;;;;;0.70;0.20;;;27.50;99.90;;;;;;4972988;28;20455;-72
2023/08/16 13:28:42;;;;;;;0.70;0.20;;;27.60;99.90;;;;;;4972609;28;20446;-72
2023/08/16 13:31:13;;;;;;;0.70;0.10;;;27.70;99.90;;;;;;4973242;28;20530;-73
2023/08/16 13:33:59;;;;;;;0.70;0.10;;;27.70;99.90;;;;;;4973056;28;20574;-73
2023/08/16 13:36:31;;;;;;;0.70;0.20;;;27.80;99.90;;;;;;4972790;28;20482;-74
2023/08/16 13:39:02;;;;;;;0.70;0.10;;;27.90;99.90;;;;;;4972929;28;20991;-73
2023/08/16 13:41:33;;;;;;;0.70;0.20;;;27.90;99.90;;;;;;4973245;28;20473;-73
2023/08/16 13:44:11;;;;;;;0.70;0.10;;;27.80;99.90;;;;;;4972900;28;20444;-75
2023/08/16 13:46:42;;;;;;;0.70;0.10;;;27.80;99.90;;;;;;4972929;28;20455;-72
2023/08/16 13:49:10;;;;;;;0.70;0.10;;;27.80;99.90;;;;;;4973110;28;20479;-74
2023/08/16 13:51:39;;;;;;;0.70;0.10;;;27.80;99.90;;;;;;4973188;28;20471;-73
2023/08/16 13:54:07;;;;;;;0.70;0.10;;;27.80;99.90;;;;;;4973316;28;20519;-75
2023/08/16 13:56:35;;;;;;;0.70;0.10;;;;;;;;;;4975347;28;20513;-76
2023/08/16 13:59:15;;;;;;;0.70;0.10;;;27.90;99.90;;;;;;4979638;28;21131;-74
2023/08/16 14:01:44;;;;;;;0.70;0.20;;;27.90;99.90;;;;;;4974826;28;20537;-73
2023/08/16 14:04:12;;;;;;;0.70;0.23;;;27.80;99.90;;;;;;4975663;28;20440;-73
2023/08/16 14:06:42;;;;;;;0.70;0.10;;;27.80;99.90;;;;;;4973697;28;20530;-73
2023/08/16 14:09:10;;;;;;;0.70;0.10;;;27.80;99.90;;;;;;4973144;28;20510;-73
2023/08/16 14:11:38;;;;;;;0.70;0.10;;;27.90;99.90;;;;;;4973154;28;20473;-73
2023/08/16 14:14:06;;;;;;;0.70;0.10;;;27.90;99.90;;;;;;4972889;28;20475;-74
2023/08/16 14:16:34;;;;;;;0.70;0.20;;;28.00;99.90;;;;;;4972707;28;20482;-74
2023/08/16 14:19:05;;;;;;;0.70;0.10;;;28.10;99.90;;;;;;4973295;28;20445;-73
2023/08/16 14:21:33;;;;;;;0.70;0.10;;;28.20;99.90;;;;;;4972953;28;20969;-72
2023/08/16 14:24:03;;;;;;;0.70;0.10;;;;;;;;;;4972891;28;20526;-73
2023/08/16 14:26:31;;;;;;;0.70;0.20;;;28.30;99.90;;;;;;4973474;28;20825;-73
2023/08/16 14:28:59;;;;;;;0.70;0.10;;;28.30;99.90;;;;;;4972929;28;20457;-73
2023/08/16 14:31:26;;;;;;;0.70;0.20;;;28.50;99.90;;;;;;4972713;28;20471;-75
2023/08/16 14:33:54;;;;;;;0.70;0.20;;;28.60;99.90;;;;;;4972783;28;20535;-75
2023/08/16 14:36:22;;;;;;;1.80;0.60;;;28.60;99.90;;;;;;4972121;28;20518;-73
2023/08/16 14:38:50;;;;;;;0.70;0.20;;;28.60;99.90;;;;;;4973191;28;20518;-74
2023/08/16 14:41:29;;;;;;;0.70;0.20;;;28.70;99.90;;;;;;4976708;28;20550;-74
2023/08/16 14:43:57;;;;;;;0.70;0.10;;;28.70;99.90;;;;;;4976172;28;20452;-74
2023/08/16 14:46:25;;;;;;;0.70;0.20;;;28.70;99.90;;;;;;4975813;28;20476;-73
2023/08/16 14:48:54;;;;;;;0.70;0.20;;;28.80;99.90;;;;;;4976273;28;20540;-74
2023/08/16 14:51:22;;;;;;;1.13;0.70;;;29.10;99.90;;;;;;4976323;28;21007;-73
2023/08/16 14:53:50;;;;;;;0.70;0.20;;;29.10;99.90;;;;;;4976181;28;20459;-75
2023/08/16 14:56:18;;;;;;;0.70;0.10;;;29.00;99.90;;;;;;4975994;28;21080;-75
2023/08/16 14:58:48;;;;;;;0.70;0.20;;;29.00;99.90;;;;;;4976191;28;20943;-74
2023/08/16 15:01:16;;;;;;;0.70;0.20;;;29.10;99.90;;;;;;4975631;28;20484;-73
2023/08/16 15:03:44;;;;;;;0.70;0.23;;;29.00;99.90;;;;;;4976256;28;20454;-74
2023/08/16 15:06:12;;;;;;;0.80;0.40;;;28.90;99.90;;;;;;4975662;28;20467;-74
2023/08/16 15:08:39;;;;;;;0.70;0.10;;;28.80;99.90;;;;;;4976015;28;20456;-74
2023/08/16 15:11:15;;;;;;;0.70;0.20;;;28.80;99.90;;;;;;4976131;28;20506;-72
2023/08/16 15:13:43;;;;;;;0.70;0.20;;;28.70;99.90;;;;;;4976029;28;20596;-72
2023/08/16 15:16:15;;;;;;;0.70;0.20;;;28.80;99.90;;;;;;4975191;28;20574;-72
2023/08/16 15:18:43;;;;;;;0.70;0.20;;;28.80;99.90;;;;;;4975729;28;20518;-73
2023/08/16 15:21:10;;;;;;;0.70;0.10;;;28.80;99.90;;;;;;4975286;28;20532;-72
2023/08/16 15:23:39;;;;;;;0.70;0.10;;;28.80;99.90;;;;;;4975376;28;20523;-73
2023/08/16 15:26:08;;;;;;;0.70;0.10;;;28.80;99.90;;;;;;4976689;28;20531;-74
2023/08/16 15:28:37;;;;;;;0.70;0.10;;;;;;;;;;4975266;28;20863;-73
2023/08/16 15:31:06;;;;;;;0.70;0.10;;;28.60;99.90;;;;;;4975511;28;20562;-73
2023/08/16 15:33:35;;;;;;;0.80;0.47;;;28.60;99.90;;;;;;4975305;28;20440;-73
2023/08/16 15:36:04;;;;;;;1.67;0.50;;;28.60;99.90;;;;;;4972668;28;21042;-72
2023/08/16 15:38:41;;;;;;;0.70;0.10;;;28.70;99.90;;;;;;4968225;28;20551;-73
2023/08/16 15:41:09;;;;;;;0.70;0.10;;;28.80;99.90;;;;;;4968419;28;20483;-73
2023/08/16 15:43:38;;;;;;;0.70;0.30;;;28.80;99.90;;;;;;4974378;28;20463;-74
2023/08/16 15:46:07;;;;;;;0.70;0.10;;;29.10;99.90;;;;;;4975779;28;20445;-72
2023/08/16 15:48:37;;;;;;;0.70;0.20;;;29.10;99.90;;;;;;4975361;28;20453;-73
2023/08/16 15:51:05;;;;;;;0.70;0.20;;;29.00;99.90;;;;;;4975148;28;20469;-76
2023/08/16 15:53:33;;;;;;;0.70;0.20;;;;;;;;;;4975464;28;21176;-70
2023/08/16 15:56:02;;;;;;;0.80;0.30;;;28.90;99.90;;;;;;4972737;28;20483;-74
2023/08/16 15:58:31;;;;;;;0.70;0.20;;;28.60;99.90;;;;;;4975871;28;20449;-76
2023/08/16 16:01:01;;;;;;;0.70;0.10;;;28.60;99.90;;;;;;4975156;28;20481;-76
2023/08/16 16:03:30;;;;;;;0.70;0.20;;;28.60;99.90;;;;;;4976636;28;20487;-78
2023/08/16 16:05:59;;;;;;;0.70;0.20;;;28.50;99.90;;;;;;4979256;28;20465;-78
2023/08/16 16:08:30;;;;;;;0.70;0.10;;;28.50;99.90;;;;;;4976811;28;20492;-75
2023/08/16 16:10:58;;;;;;;0.70;0.20;;;28.50;99.90;;;;;;4976297;28;20467;-76
2023/08/16 16:13:27;;;;;;;0.70;0.10;;;28.50;99.90;;;;;;4975654;28;20522;-75
2023/08/16 16:15:55;;;;;;;0.70;0.20;;;28.50;99.90;;;;;;4976369;28;20578;-73
2023/08/16 16:18:24;;;;;;;0.70;0.20;;;28.50;99.90;;;;;;4975009;28;20452;-72
2023/08/16 16:20:51;;;;;;;0.70;0.20;;;28.50;99.90;;;;;;4972305;28;20580;-75
2023/08/16 16:23:21;;;;;;;0.70;0.10;;;28.50;99.90;;;;;;4968627;28;20440;-76
2023/08/16 16:25:51;;;;;;;0.70;0.20;;;28.50;99.90;;;;;;4975337;28;20501;-74
2023/08/16 16:28:19;;;;;;;0.70;0.30;;;28.50;99.90;;;;;;4974750;28;20485;-73
2023/08/16 16:30:47;;;;;;;1.77;1.07;;;28.40;99.90;;;;;;4973696;28;20479;-73
2023/08/16 16:33:15;;;;;;;0.70;0.20;;;28.40;99.90;;;;;;4973749;28;20448;-73
2023/08/16 16:35:43;;;;;;;0.70;0.10;;;28.40;99.90;;;;;;4972709;28;20503;-73
2023/08/16 16:38:11;;;;;;;0.70;0.10;;;28.30;99.90;;;;;;4967977;28;21031;-73
2023/08/16 16:40:40;;;;;;;0.70;0.30;;;28.30;99.90;;;;;;4967203;28;20558;-72
2023/08/16 16:43:08;;;;;;;0.70;0.10;;;28.30;99.90;;;;;;4973345;28;20523;-73
2023/08/16 16:45:36;;;;;;;1.00;0.77;;;28.20;99.90;;;;;;4973185;28;20952;-74
2023/08/16 16:48:05;;;;;;;0.70;0.10;;;25.10;99.90;;;;;;4973953;28;20534;-73
2023/08/16 16:50:33;;;;;;;1.33;0.93;;;28.00;99.90;;;;;;4967638;28;20556;-71
2023/08/16 16:53:01;;;;;;;1.10;0.30;;;27.90;99.90;;;;;;4972162;28;20449;-71
2023/08/16 16:55:31;;;;;;;0.70;0.10;;;;;;;;;;4970838;28;20452;-71
2023/08/16 16:58:00;;;;;;;0.70;0.10;;;27.80;99.90;;;;;;4971163;28;21001;-70
2023/08/16 17:00:29;;;;;;;0.70;0.20;;;27.80;99.90;;;;;;4971561;28;20447;-75
2023/08/16 17:03:00;;;;;;;0.70;0.20;;;27.70;99.90;;;;;;4970081;28;20451;-73
2023/08/16 17:05:28;;;;;;;0.80;0.40;;;27.70;99.90;;;;;;4973390;28;20476;-71
2023/08/16 17:07:56;;;;;;;0.70;0.20;;;27.50;99.90;;;;;;4973706;28;20543;-70
2023/08/16 17:10:24;;;;;;;0.70;0.20;;;27.50;99.90;;;;;;4974600;28;20506;-72
2023/08/16 17:12:51;;;;;;;0.70;0.17;;;27.50;99.90;;;;;;4974418;28;20492;-73
2023/08/16 17:15:21;;;;;;;1.37;1.17;;;27.40;99.90;;;;;;4972934;28;20456;-73